Sbi Magnum — V7FQ8 — position and weather

sailwx.info

Track history (hours):
 
Tides and Currents Weather Stations Pressure Air Temp Water Temp Dewpoint Dewpoint Depression Visibility Wind Speed Wind Dir Waves Ship Positions

Sbi Magnum

Last reported at 2018-Jan-12 14:58 UTC. Time now 2018-Jan-19 00:01 UTC.
Position N 01°17' E 104°08'.

Length 292 m; draft 8.7 m.

Type: Cargo ship. MMSI: 538005643.

Date/timePositionNaut miles runAvg speedWind from/ knotsBaromVisibWave heightAir tempDewpointWater temp
2018-Jan-12 14:58N 01°17' E 104°08'610.6
2018-Jan-12 14:24N 01°17' E 104°14'613.6
2018-Jan-12 13:59N 01°20' E 104°20'  
2018-Jan-07 21:10N 22°19' E 114°07'1 0.0
2018-Jan-06 22:28N 22°20' E 114°08'24912.2
2018-Jan-06 02:01N 23°54' E 118°18'014.6
2018-Jan-06 01:59N 23°54' E 118°18'715.3
2018-Jan-06 01:30N 23°59' E 118°25'715.3
2018-Jan-06 01:01N 24°04' E 118°31'815.4
2018-Jan-06 00:30N 24°08' E 118°38'815.7
2018-Jan-06 00:00N 24°13' E 118°45'  
2018-Jan-02 16:45N 30°37' E 122°03'1 2.1
2018-Jan-02 16:27N 30°38' E 122°03'0 0.3
2018-Jan-02 15:56N 30°38' E 122°03'0 0.0
2018-Jan-02 15:29N 30°38' E 122°03'  
Track history (hours):
 
Tides and Currents Weather Stations Pressure Air Temp Water Temp Dewpoint Dewpoint Depression Visibility Wind Speed Wind Dir Waves Ship Positions

Sbi Magnum

Last reported at 2018-Jan-12 14:58 UTC. Time now 2018-Jan-19 00:01 UTC.
Position N 01°17' E 104°08'.

Length 292 m; draft 8.7 m.

Type: Cargo ship. MMSI: 538005643.

Date/timePositionNaut miles runAvg speedWind from/ knotsBaromVisibWave heightAir tempDewpointWater temp
2018-Jan-12 14:58N 01°17' E 104°08'610.6
2018-Jan-12 14:24N 01°17' E 104°14'613.6
2018-Jan-12 13:59N 01°20' E 104°20'  
2018-Jan-07 21:10N 22°19' E 114°07'1 0.0
2018-Jan-06 22:28N 22°20' E 114°08'24912.2
2018-Jan-06 02:01N 23°54' E 118°18'014.6
2018-Jan-06 01:59N 23°54' E 118°18'715.3
2018-Jan-06 01:30N 23°59' E 118°25'715.3
2018-Jan-06 01:01N 24°04' E 118°31'815.4
2018-Jan-06 00:30N 24°08' E 118°38'815.7
2018-Jan-06 00:00N 24°13' E 118°45'  
2018-Jan-02 16:45N 30°37' E 122°03'1 2.1
2018-Jan-02 16:27N 30°38' E 122°03'0 0.3
2018-Jan-02 15:56N 30°38' E 122°03'0 0.0
2018-Jan-02 15:29N 30°38' E 122°03'  

Dump ship's entire track history